Hauptseite
METAR-TAF:

METAR-TAF

Flughäfen :

Nouakchott, Mauretanien

Flughafen Nouakchott-Oumtounsy

Breite: 18-18-36N, Länge: 015-58-11W, Höhe: 3 m

Beobachtung

Neuester Wetterbericht von vor 32 Minuten, um 17:30 UTC
Wind 9 kt aus Nordost
Temperatur 32°C
Luftfeuchtigkeit 7%
Luftdruck 1010 hPa
Sichtweite 10 km oder mehr
keine Wolken unter 1500 m und keine Kumulonimbus oder Gewitterwolken

METAR: GQNO 191730Z 04009KT CAVOK 32/M08 Q1010 NOSIG

Zeit: 18:02 (18:02 UTC)

Prognose

Neuester Wetterbericht von vor 1 Stunde und 2 Minuten, um 17:00 UTC
Gültige Prognose vom 19 um 18 UTC bis 20 um 24 UTC
Wind 12 kt aus Nordost
Sichtweite: 7000 m
Übergehend zu
vom 19 um 19 UTC bis 19 um 21 UTC
Wind 12 kt aus Nord/Nordwest
Zeitweise
vom 20 um 08 UTC bis 20 um 18 UTC
Wind 12 kt aus Ost

TAF: GQNO 191700Z 1918/2024 05012KT 7000 NSC BECMG 1919/1921 34012KT TEMPO 2008/2018 09012KT

Wetterbeobachtungen und Prognosen von mehr als 4000 Flughäfen (METAR und TAF Bericht).

Die verfügbaren Stationen werden durch gelbe und rote Markierungen auf der Karte dargestellt.

Führen Sie die Maus auf sie, um den Namen der Station zu sehen.

Darauf klicken, um die Beobachtung von Wetterbeobachtungen und Prognosen zu sehen.

Um die Karte zu ändern : klicken Sie auf den grünen Tasten mit einem schwarzen Kreuz Zum Vergrößern, auf den grünen Button mit einem Gedankenstrich zu verkleinern, oder auf die grünen Pfeile für benachbarte Karten.


METAR-TAF: